Antelope, Texas
Current Conditions -  °F | °C
As of 12:30 AM on Monday 24 Nov 2014 (Local Time) from KRPH Reporting Station
Clear Clear  
Wind Chill: 39°   Ceiling: Unl
Heat Index: 43°   Visibility: 10mi
Dew Point: 37°   Wind: 7mph
Humidity: 80%   Direction: 280°W
Pressure: 29.88"   Gusts: NA
Location:  33.4259°N, 98.383°W
Report Text: KRPH 240630Z AUTO 28006KT 10SM CLR 06/03 A2988 RMK AO2 T00610028
Loading
Personal Weather Stations






























Interactive Weather Map New forecast layout! Learn more

10-Day Weather Forecast

Advertisements
Track Severe Weather on mobile